General Heriberto Jara International Airport
MMVR : now visible

Airfield :











YOU CAN JOIN US ON...

 
LOGIN :

Register | Disclaimer

   EN    FR    IT 

 









Legend :    VFR   Marginal VFR   IFR   Intensive IFR   Very Intensive IFR
Visi :
Ceiling :
>= 8 km
>= 3000ft
5 to 8 km
1000 to 3000 ft
1500m to 5 km
500 to 1000 ft
800 to 1500m
200 to 500 ft
< 800m
< 200 ft
Symbols :   Thunderstorms  Fog  Heavy snow  Heavy precipitations  Wind > 20 kt






- Airport Elevation : 90 ft
- IATA code : VER


MMVR - General Heriberto Jara International

CURRENT METAR :
  • 251649Z 00000KT 6SM FEW010 FEW070 25/20 A3010 RMK 8/130 HZY

EXPIRED METARs :
  • 251545Z 00000KT 6SM FEW008 FEW070 25/20 A3011 RMK 8/130 HZY
  • 251450Z 00000KT 6SM FEW070 24/20 A3010 RMK SLP167 52018 915 8/030 HZY

TAF TAF MMVR
Valid from the 25 at 06:00 until the 26 at 06:00 UTC


250523Z 2506/2606 00000KT P6SM SCT015 BKN080 TX26/2519Z TN19/2512Z
TEMPO 2511/2515 3SM BR HZ BKN010
FM251800 12010KT 5SM HZ SCT010 BKN080
FM260500 09005KT P6SM SCT015 BKN080



MET'MAP, your aeronautical weather chart ! - Copyright ORBIFLY December 2007 - Disclaimer

ORBIFLY MET'MAP TEAM :

Programming & Development : Alexandra Zaïnal
Concept & original design : Baudouin d'Aumeries
Assistance for programming : Marc-Olivier Méhu
Technical & hardware support : Manuel Goepfert

Contact : metmap@orbifly.com




SOURCES & CREDITS :

   NOAA       Earth
Advisory